createdAt,value
2019-04-07T00:00:41.084Z,23.70
2019-04-07T00:03:10.539Z,27.62
2019-04-07T00:05:39.488Z,20.68
2019-04-07T00:08:08.371Z,26.52
2019-04-07T00:10:37.302Z,25.65
2019-04-07T00:13:06.140Z,20.23
2019-04-07T00:15:37.830Z,20.62
2019-04-07T00:18:06.714Z,20.75
2019-04-07T00:20:35.437Z,20.27
2019-04-07T00:23:04.223Z,20.57
2019-04-07T00:25:33.327Z,21.75
2019-04-07T00:28:02.578Z,21.20
2019-04-07T00:30:31.653Z,21.33
2019-04-07T00:33:00.813Z,21.33
2019-04-07T00:35:32.638Z,23.83
2019-04-07T00:38:00.600Z,25.65
2019-04-07T00:40:29.504Z,20.20
2019-04-07T00:42:58.379Z,20.92
2019-04-07T00:45:27.970Z,19.12
2019-04-07T00:47:56.810Z,19.92
2019-04-07T00:50:25.752Z,21.20
2019-04-07T00:52:54.679Z,20.82
2019-04-07T00:55:23.401Z,19.98
2019-04-07T00:57:52.915Z,21.00
2019-04-07T01:00:23.558Z,21.10
2019-04-07T01:02:52.928Z,21.37
2019-04-07T01:05:33.748Z,21.17
2019-04-07T01:07:52.189Z,19.75
2019-04-07T01:10:21.595Z,21.95
2019-04-07T01:12:51.201Z,21.07
2019-04-07T01:15:20.293Z,20.97
2019-04-07T01:17:49.864Z,18.23
2019-04-07T01:20:19.465Z,17.30
2019-04-07T01:22:48.569Z,21.73
2019-04-07T01:25:17.323Z,19.60
2019-04-07T01:27:46.593Z,21.75
2019-04-07T01:30:16.068Z,19.17
2019-04-07T01:32:45.518Z,23.85
2019-04-07T01:35:14.520Z,19.90
2019-04-07T01:37:44.522Z,21.90
2019-04-07T01:40:13.586Z,23.12
2019-04-07T01:42:59.015Z,23.98
2019-04-07T01:45:35.228Z,23.73
2019-04-07T01:48:11.820Z,24.35
2019-04-07T01:50:45.138Z,20.65
2019-04-07T01:53:28.000Z,24.82
2019-04-07T01:56:10.754Z,22.85
2019-04-07T01:58:58.294Z,20.72
2019-04-07T02:01:31.324Z,26.10
2019-04-07T02:04:05.009Z,22.40
2019-04-07T02:06:41.975Z,23.42
2019-04-07T02:09:12.604Z,23.30
2019-04-07T02:11:43.042Z,21.07
2019-04-07T02:14:22.471Z,24.15
2019-04-07T02:16:59.252Z,22.55
2019-04-07T02:19:44.881Z,23.02
2019-04-07T02:22:15.848Z,22.07
2019-04-07T02:24:55.385Z,23.62
2019-04-07T02:27:25.850Z,20.82
2019-04-07T02:30:02.096Z,21.90
2019-04-07T02:32:35.645Z,23.15
2019-04-07T02:35:12.153Z,20.57
2019-04-07T02:37:42.760Z,21.97
2019-04-07T02:40:13.734Z,22.82
2019-04-07T02:42:44.230Z,23.30
2019-04-07T02:45:26.965Z,24.25
2019-04-07T02:47:57.864Z,22.48
2019-04-07T02:50:34.897Z,23.62
2019-04-07T02:53:08.160Z,25.40
2019-04-07T02:55:48.337Z,23.02
2019-04-07T02:58:35.809Z,23.87
2019-04-07T03:01:06.960Z,28.47
2019-04-07T03:03:40.613Z,25.32
2019-04-07T03:06:26.258Z,24.57
2019-04-07T03:08:49.212Z,25.40
2019-04-07T03:11:37.520Z,22.60
2019-04-07T03:14:08.914Z,23.95
2019-04-07T03:16:51.765Z,26.75
2019-04-07T03:19:25.448Z,24.67
2019-04-07T03:21:58.361Z,25.00
2019-04-07T03:24:34.873Z,22.22
2019-04-07T03:27:24.044Z,23.35
2019-04-07T03:30:06.643Z,22.20
2019-04-07T03:32:43.114Z,22.22
2019-04-07T03:35:13.147Z,21.75
2019-04-07T03:37:48.381Z,20.85
2019-04-07T03:40:30.852Z,24.72
2019-04-07T03:43:07.069Z,24.75
2019-04-07T03:45:43.629Z,21.27
2019-04-07T03:48:14.285Z,20.05
2019-04-07T03:50:44.631Z,25.80
2019-04-07T03:53:15.837Z,21.82
2019-04-07T03:55:49.477Z,20.55
2019-04-07T03:58:37.453Z,23.05
2019-04-07T04:01:21.249Z,21.07
2019-04-07T04:03:59.294Z,18.40
2019-04-07T04:06:46.039Z,17.75
2019-04-07T04:09:32.841Z,17.90
2019-04-07T04:12:07.102Z,15.35
2019-04-07T04:14:54.723Z,15.70
2019-04-07T04:17:23.733Z,14.93
2019-04-07T04:19:52.559Z,16.27
2019-04-07T04:22:21.382Z,17.67
2019-04-07T04:24:51.805Z,18.92
2019-04-07T04:27:21.520Z,14.30
2019-04-07T04:29:51.913Z,15.60
2019-04-07T04:32:21.984Z,13.35
2019-04-07T04:34:51.377Z,20.20
2019-04-07T04:37:34.277Z,19.32
2019-04-07T04:39:51.190Z,14.60
2019-04-07T04:42:20.392Z,16.10
2019-04-07T04:44:49.333Z,19.40
2019-04-07T04:47:19.059Z,19.40
2019-04-07T04:49:48.370Z,22.98
2019-04-07T04:52:18.015Z,17.55
2019-04-07T04:54:47.479Z,16.15
2019-04-07T04:57:16.502Z,18.90
2019-04-07T04:59:45.186Z,12.73
2019-04-07T05:02:14.135Z,12.43
2019-04-07T05:04:43.865Z,21.12
2019-04-07T05:07:13.585Z,15.65
2019-04-07T05:09:47.737Z,15.60
2019-04-07T05:12:12.843Z,13.65
2019-04-07T05:14:41.483Z,15.95
2019-04-07T05:17:10.352Z,18.90
2019-04-07T05:19:42.741Z,17.05
2019-04-07T05:22:10.513Z,16.90
2019-04-07T05:24:39.283Z,21.12
2019-04-07T05:27:08.589Z,15.45
2019-04-07T05:29:37.436Z,21.50
2019-04-07T05:32:06.908Z,15.78
2019-04-07T05:34:35.648Z,17.48
2019-04-07T05:37:04.541Z,19.87
2019-04-07T05:39:33.372Z,24.32
2019-04-07T05:42:02.296Z,18.50
2019-04-07T05:44:31.132Z,20.32
2019-04-07T05:47:00.641Z,20.60
2019-04-07T05:49:31.348Z,20.25
2019-04-07T05:52:05.243Z,18.57
2019-04-07T05:54:32.855Z,16.50
2019-04-07T05:57:02.571Z,18.35
2019-04-07T06:00:17.054Z,25.97
2019-04-07T06:02:48.201Z,18.35
2019-04-07T06:05:35.696Z,21.23
2019-04-07T06:08:30.337Z,16.67
2019-04-07T06:10:56.821Z,18.37
2019-04-07T06:13:30.043Z,17.52
2019-04-07T06:18:36.837Z,17.17
2019-04-07T06:21:06.114Z,15.13
2019-04-07T06:23:41.184Z,18.10
2019-04-07T06:26:11.782Z,13.15
2019-04-07T06:28:41.280Z,13.48
2019-04-07T06:31:34.804Z,14.65
2019-04-07T06:34:13.712Z,13.55
2019-04-07T06:36:39.683Z,15.40
2019-04-07T06:39:09.505Z,16.02
2019-04-07T06:41:39.054Z,17.82
2019-04-07T06:44:13.252Z,17.37
2019-04-07T06:46:59.120Z,20.65
2019-04-07T06:49:42.688Z,17.15
2019-04-07T06:52:15.203Z,16.57
2019-04-07T06:54:52.027Z,18.95
2019-04-07T06:59:55.596Z,19.65
2019-04-07T07:02:43.724Z,14.43
2019-04-07T07:05:16.399Z,15.63
2019-04-07T07:07:53.044Z,15.83
2019-04-07T07:10:40.764Z,13.70
2019-04-07T07:13:28.510Z,16.25
2019-04-07T07:15:51.840Z,12.95
2019-04-07T07:18:23.719Z,18.07
2019-04-07T07:21:04.033Z,17.95
2019-04-07T07:23:35.468Z,13.80
2019-04-07T07:26:04.432Z,16.00
2019-04-07T07:28:33.772Z,16.25
2019-04-07T07:31:03.204Z,14.40
2019-04-07T07:33:32.161Z,16.50
2019-04-07T07:36:35.059Z,14.90
2019-04-07T07:42:33.250Z,16.67
2019-04-07T07:48:31.371Z,15.18
2019-04-07T07:51:01.169Z,21.02
2019-04-07T07:53:30.685Z,15.98
2019-04-07T07:55:59.595Z,15.40
2019-04-07T07:58:31.737Z,19.35
2019-04-07T08:01:00.507Z,17.95
2019-04-07T08:03:29.423Z,19.98
2019-04-07T08:05:59.047Z,14.90
2019-04-07T08:08:28.576Z,16.97
2019-04-07T08:11:01.292Z,17.12
2019-04-07T08:13:28.970Z,15.90
2019-04-07T08:15:59.726Z,15.60
2019-04-07T08:18:29.644Z,16.10
2019-04-07T08:20:59.126Z,15.25
2019-04-07T08:23:28.619Z,18.15
2019-04-07T08:25:58.847Z,16.42
2019-04-07T08:28:27.999Z,16.90
2019-04-07T08:30:57.596Z,14.95
2019-04-07T08:33:28.748Z,12.63
2019-04-07T08:35:57.941Z,14.98
2019-04-07T08:38:28.232Z,15.45
2019-04-07T08:40:57.666Z,10.30
2019-04-07T08:43:26.541Z,10.03
2019-04-07T08:45:55.414Z,9.45
2019-04-07T08:48:24.330Z,10.78
2019-04-07T08:50:53.122Z,14.40
2019-04-07T08:53:21.922Z,9.53
2019-04-07T08:55:54.406Z,10.48
2019-04-07T08:58:25.770Z,9.63
2019-04-07T09:00:53.963Z,14.50
2019-04-07T09:03:23.243Z,15.68
2019-04-07T09:05:54.343Z,10.00
2019-04-07T09:08:22.770Z,8.05
2019-04-07T09:14:22.142Z,12.25
2019-04-07T09:17:11.538Z,9.88
2019-04-07T09:23:25.676Z,8.73
2019-04-07T09:29:18.805Z,8.90
2019-04-07T09:31:49.700Z,10.98
2019-04-07T09:37:55.752Z,7.80
2019-04-07T09:44:09.173Z,3.98
2019-04-07T09:46:50.279Z,6.85
2019-04-07T09:52:49.644Z,4.17
2019-04-07T09:59:18.176Z,7.45
2019-04-07T10:01:47.408Z,5.60
2019-04-07T10:07:15.129Z,13.62
2019-04-07T10:13:30.662Z,6.97
2019-04-07T10:26:11.142Z,5.55
2019-04-07T10:28:51.705Z,6.45
2019-04-07T10:38:25.849Z,5.30
2019-04-07T10:44:27.023Z,6.50
2019-04-07T10:47:10.667Z,4.42
2019-04-07T10:53:02.660Z,6.40
2019-04-07T10:59:16.103Z,5.97
2019-04-07T11:01:49.090Z,4.87
2019-04-07T11:04:24.977Z,9.20
2019-04-07T11:07:05.181Z,4.70
2019-04-07T11:09:56.231Z,3.05
2019-04-07T11:12:30.320Z,3.05
2019-04-07T11:18:42.821Z,5.22
2019-04-07T11:24:43.389Z,5.47
2019-04-07T11:27:14.784Z,5.70
2019-04-07T11:29:45.584Z,4.70
2019-04-07T11:32:33.479Z,7.67
2019-04-07T11:49:51.816Z,3.95
2019-04-07T11:57:45.387Z,3.45
2019-04-07T12:07:05.580Z,8.13
2019-04-07T12:09:57.430Z,4.85
2019-04-07T12:12:30.137Z,4.25
2019-04-07T12:15:06.340Z,6.60
2019-04-07T12:18:00.711Z,8.85
2019-04-07T12:24:30.639Z,3.47
2019-04-07T13:16:26.486Z,2.80
2019-04-07T13:40:01.471Z,5.62
2019-04-07T13:42:46.611Z,3.83
2019-04-07T13:45:30.146Z,1.32
2019-04-07T13:48:11.552Z,3.22
2019-04-07T13:50:54.404Z,1.98
2019-04-07T13:53:27.413Z,4.05
2019-04-07T13:56:17.332Z,4.60
2019-04-07T13:59:05.485Z,3.20
2019-04-07T14:01:34.705Z,2.62
2019-04-07T14:04:22.622Z,3.75
2019-04-07T14:07:03.636Z,3.27
2019-04-07T14:09:37.441Z,6.12
2019-04-07T14:12:15.562Z,3.20
2019-04-07T14:14:55.921Z,3.27
2019-04-07T14:17:53.582Z,3.72
2019-04-07T14:20:24.670Z,3.37
2019-04-07T14:22:58.141Z,5.80
2019-04-07T14:25:29.871Z,3.65
2019-04-07T14:28:00.392Z,2.10
2019-04-07T14:30:46.728Z,1.60
2019-04-07T14:33:33.013Z,5.60
2019-04-07T14:36:12.886Z,5.47
2019-04-07T14:38:43.433Z,4.42
2019-04-07T14:41:13.991Z,3.90
2019-04-07T14:43:44.553Z,2.22
2019-04-07T14:46:21.293Z,2.83
2019-04-07T14:49:14.082Z,3.98
2019-04-07T14:51:45.032Z,4.05
2019-04-07T14:54:18.558Z,4.67
2019-04-07T14:56:49.138Z,3.52
2019-04-07T14:59:39.463Z,6.03
2019-04-07T15:02:17.016Z,6.78
2019-04-07T15:04:48.003Z,2.92
2019-04-07T15:07:35.108Z,3.98
2019-04-07T15:10:20.173Z,5.53
2019-04-07T15:12:52.153Z,3.65
2019-04-07T15:15:21.490Z,5.28
2019-04-07T15:17:51.187Z,2.67
2019-04-07T15:20:20.128Z,4.67
2019-04-07T15:22:49.661Z,12.05
2019-04-07T15:25:20.195Z,4.25
2019-04-07T15:27:49.520Z,5.05
2019-04-07T15:30:20.274Z,3.22
2019-04-07T15:32:50.369Z,3.72
2019-04-07T15:35:21.315Z,10.18
2019-04-07T15:37:51.940Z,7.92
2019-04-07T15:40:21.573Z,8.80
2019-04-07T15:42:51.172Z,5.33
2019-04-07T15:45:20.569Z,5.28
2019-04-07T15:47:52.955Z,5.15
2019-04-07T15:50:21.595Z,7.50
2019-04-07T15:52:50.907Z,5.65
2019-04-07T15:55:19.730Z,9.15
2019-04-07T15:57:51.052Z,5.47
2019-04-07T16:00:21.610Z,5.58
2019-04-07T16:02:52.225Z,7.22
2019-04-07T16:05:22.582Z,8.33
2019-04-07T16:07:54.391Z,8.05
2019-04-07T16:10:24.818Z,11.40
2019-04-07T16:12:55.085Z,6.05
2019-04-07T16:15:25.066Z,8.45
2019-04-07T16:17:54.046Z,7.33
2019-04-07T16:20:26.337Z,10.82
2019-04-07T16:22:53.443Z,10.20
2019-04-07T16:25:25.462Z,8.25
2019-04-07T16:27:52.731Z,13.78
2019-04-07T16:30:21.675Z,8.08
2019-04-07T16:32:52.357Z,9.53
2019-04-07T16:35:21.316Z,9.90
2019-04-07T16:37:50.240Z,9.10
2019-04-07T16:40:21.829Z,8.20
2019-04-07T16:43:05.510Z,9.73
2019-04-07T16:45:24.679Z,8.98
2019-04-07T16:47:58.825Z,6.70
2019-04-07T16:50:29.928Z,8.95
2019-04-07T16:53:13.833Z,7.60
2019-04-07T16:55:47.595Z,12.53
2019-04-07T16:58:15.864Z,6.33
2019-04-07T17:00:55.960Z,5.78
2019-04-07T17:03:27.449Z,9.73
2019-04-07T17:05:59.317Z,10.78
2019-04-07T17:08:29.977Z,17.77
2019-04-07T17:10:59.573Z,7.50
2019-04-07T17:13:38.146Z,15.20
2019-04-07T17:15:59.772Z,11.18
2019-04-07T17:18:37.473Z,11.70
2019-04-07T17:21:10.342Z,10.32
2019-04-07T17:23:47.746Z,12.13
2019-04-07T17:26:12.174Z,10.55
2019-04-07T17:28:44.663Z,11.00
2019-04-07T17:31:11.918Z,8.95
2019-04-07T17:33:41.517Z,13.55
2019-04-07T17:36:10.607Z,11.22
2019-04-07T17:39:03.325Z,9.30
2019-04-07T17:41:31.832Z,8.10
2019-04-07T17:44:22.074Z,10.55
2019-04-07T17:46:58.461Z,8.28
2019-04-07T17:52:11.021Z,9.70
2019-04-07T17:54:55.822Z,8.20
2019-04-07T17:57:34.846Z,6.62
2019-04-07T18:00:07.804Z,6.22
2019-04-07T18:02:57.194Z,6.67
2019-04-07T18:05:44.220Z,9.55
2019-04-07T18:08:23.655Z,9.05
2019-04-07T18:11:04.274Z,7.35
2019-04-07T18:13:41.976Z,7.33
2019-04-07T18:16:06.940Z,8.03
2019-04-07T18:18:51.718Z,9.40
2019-04-07T18:21:27.320Z,10.47
2019-04-07T18:24:14.760Z,6.20
2019-04-07T18:26:49.218Z,7.60
2019-04-07T18:29:29.567Z,7.70
2019-04-07T18:32:00.125Z,9.50
2019-04-07T18:34:32.167Z,8.85
2019-04-07T18:37:14.808Z,8.08
2019-04-07T18:40:02.478Z,7.00
2019-04-07T18:42:43.115Z,9.48
2019-04-07T18:45:21.587Z,7.90
2019-04-07T18:47:54.783Z,10.60
2019-04-07T18:50:25.219Z,7.35
2019-04-07T18:53:07.689Z,10.18
2019-04-07T18:55:39.098Z,9.00
2019-04-07T18:58:26.714Z,8.73
2019-04-07T19:01:04.293Z,5.72
2019-04-07T19:03:38.551Z,6.58
2019-04-07T19:06:09.352Z,7.78
2019-04-07T19:09:00.777Z,5.92
2019-04-07T19:11:34.090Z,9.63
2019-04-07T19:14:24.655Z,7.40
2019-04-07T19:16:39.371Z,7.90
2019-04-07T19:19:25.658Z,6.72
2019-04-07T19:21:57.305Z,8.65
2019-04-07T19:24:43.841Z,5.72
2019-04-07T19:27:30.099Z,7.75
2019-04-07T19:30:07.149Z,5.83
2019-04-07T19:32:46.514Z,7.58
2019-04-07T19:35:26.971Z,6.05
2019-04-07T19:38:00.471Z,7.42
2019-04-07T19:40:40.205Z,7.17
2019-04-07T19:43:12.575Z,8.40
2019-04-07T19:45:43.419Z,6.03
2019-04-07T19:48:14.047Z,7.58
2019-04-07T19:51:03.170Z,8.70
2019-04-07T19:53:45.615Z,12.70
2019-04-07T19:56:16.059Z,9.10
2019-04-07T19:58:47.018Z,7.28
2019-04-07T20:01:33.858Z,6.40
2019-04-07T20:04:11.047Z,10.82
2019-04-07T20:06:42.015Z,9.50
2019-04-07T20:09:44.127Z,8.75
2019-04-07T20:12:27.117Z,14.07
2019-04-07T20:15:16.730Z,10.98
2019-04-07T20:17:50.384Z,11.43
2019-04-07T20:20:25.907Z,11.90
2019-04-07T20:22:57.867Z,10.00
2019-04-07T20:25:46.189Z,11.18
2019-04-07T20:28:13.283Z,7.78
2019-04-07T20:31:02.613Z,7.72
2019-04-07T20:33:44.558Z,8.70
2019-04-07T20:36:31.619Z,11.75
2019-04-07T20:39:17.197Z,11.05
2019-04-07T20:42:03.117Z,13.00
2019-04-07T20:44:42.588Z,10.43
2019-04-07T20:47:31.747Z,10.72
2019-04-07T20:50:10.746Z,9.63
2019-04-07T20:52:40.520Z,13.13
2019-04-07T20:55:13.448Z,9.68
2019-04-07T20:58:17.249Z,13.60
2019-04-07T21:00:51.912Z,11.38
2019-04-07T21:03:28.807Z,10.78
2019-04-07T21:06:14.677Z,10.08
2019-04-07T21:08:51.785Z,13.72
2019-04-07T21:11:23.257Z,10.98
2019-04-07T21:13:54.569Z,11.18
2019-04-07T21:16:29.509Z,9.75
2019-04-07T21:19:07.989Z,10.28
2019-04-07T21:21:56.045Z,12.20
2019-04-07T21:24:27.231Z,9.75
2019-04-07T21:27:12.629Z,8.33
2019-04-07T21:29:58.005Z,10.23
2019-04-07T21:32:37.301Z,10.48
2019-04-07T21:35:14.986Z,9.15
2019-04-07T21:37:55.030Z,8.80
2019-04-07T21:40:44.947Z,9.48
2019-04-07T21:43:28.492Z,12.78
2019-04-07T21:46:11.646Z,11.63
2019-04-07T21:48:53.993Z,8.03
2019-04-07T21:51:26.933Z,13.93
2019-04-07T21:54:12.872Z,11.53
2019-04-07T21:56:52.167Z,12.43
2019-04-07T21:59:26.552Z,12.37
2019-04-07T22:01:55.094Z,12.28
2019-04-07T22:04:41.488Z,9.80
2019-04-07T22:07:32.175Z,14.38
2019-04-07T22:10:12.046Z,13.15
2019-04-07T22:12:41.016Z,7.75
2019-04-07T22:15:13.456Z,11.88
2019-04-07T22:17:40.975Z,16.55
2019-04-07T22:20:10.585Z,15.13
2019-04-07T22:22:39.406Z,18.32
2019-04-07T22:25:09.788Z,18.92
2019-04-07T22:27:39.028Z,14.23
2019-04-07T22:30:10.020Z,12.15
2019-04-07T22:32:38.872Z,16.65
2019-04-07T22:35:08.471Z,16.17
2019-04-07T22:37:37.724Z,16.17
2019-04-07T22:40:17.753Z,14.65
2019-04-07T22:42:48.506Z,15.98
2019-04-07T22:45:17.363Z,15.88
2019-04-07T22:47:46.679Z,13.80
2019-04-07T22:50:15.873Z,16.27
2019-04-07T22:52:47.333Z,15.72
2019-04-07T22:55:15.213Z,15.95
2019-04-07T22:57:44.197Z,21.37
2019-04-07T23:00:15.758Z,15.13
2019-04-07T23:02:44.576Z,17.92
2019-04-07T23:05:13.439Z,17.62
2019-04-07T23:07:42.455Z,21.25
2019-04-07T23:10:11.506Z,17.87
2019-04-07T23:12:40.949Z,15.78
2019-04-07T23:15:10.009Z,20.10
2019-04-07T23:17:39.768Z,13.88
2019-04-07T23:20:08.827Z,13.95
2019-04-07T23:22:38.282Z,18.30
2019-04-07T23:25:07.876Z,18.52
2019-04-07T23:27:36.788Z,15.72
2019-04-07T23:30:07.707Z,15.45
2019-04-07T23:32:36.555Z,13.85
2019-04-07T23:35:08.227Z,11.10
2019-04-07T23:37:37.108Z,12.33
2019-04-07T23:40:06.985Z,14.75
2019-04-07T23:42:36.170Z,15.83
2019-04-07T23:45:08.115Z,16.70
2019-04-07T23:47:37.102Z,13.30
2019-04-07T23:50:07.117Z,21.57
2019-04-07T23:52:36.005Z,15.75
2019-04-07T23:55:05.012Z,15.95
2019-04-07T23:57:34.040Z,14.28
